Time;durP1;ratioP1;P1;durP2;ratioP2;P2;SDS_P1;SDS_P2;PMS_P1;PMS_P2;Temp;Humidity;BMP_temperature;BMP_pressure;BME280_temperature;BME280_humidity;BME280_pressure;Samples;Min_cycle;Max_cycle;Signal;HPM_P1;HPM_P2
2023/07/13 00:00:19;;;;;;;15.85;11.30;;;;;;;;;;10330488;28;20072;-60
2023/07/13 00:05:19;;;;;;;15.02;11.05;;;;;;;;;;10331860;28;20075;-61
2023/07/13 00:10:17;;;;;;;13.20;10.15;;;;;;;;;;10330526;28;20074;-61
2023/07/13 00:15:17;;;;;;;18.88;11.65;;;;;;;;;;10330577;28;20068;-61
2023/07/13 00:20:15;;;;;;;14.55;10.65;;;;;;;;;;10329955;28;20068;-61
2023/07/13 00:25:15;;;;;;;12.82;10.85;;;;;;;;;;10331054;28;20075;-61
2023/07/13 00:30:15;;;;;;;15.10;10.95;;;;;;;;;;10329286;28;20496;-61
2023/07/13 00:35:14;;;;;;;12.13;10.98;;;;;;;;;;10315841;28;20052;-60
2023/07/13 00:40:14;;;;;;;11.02;9.88;;;;;;;;;;10332199;28;20063;-61
2023/07/13 00:45:31;;;;;;;13.73;11.43;;;;;;;;;;10310821;28;20076;-61
2023/07/13 00:50:30;;;;;;;13.65;10.88;;;;;;;;;;10313313;28;20493;-61
2023/07/13 00:55:28;;;;;;;11.45;10.23;;;;;;;;;;10328422;28;20068;-61
2023/07/13 01:00:28;;;;;;;16.23;10.98;;;;;;;;;;10329716;28;20504;-61
2023/07/13 01:05:26;;;;;;;11.85;10.65;;;;;;;;;;10328747;28;20060;-61
2023/07/13 01:10:26;;;;;;;10.75;9.63;;;;;;;;;;10329803;28;20079;-61
2023/07/13 01:15:38;;;;;;;12.45;11.20;;;;;;;;;;10330778;28;20099;-60
2023/07/13 01:20:37;;;;;;;15.52;10.30;;;;;;;;;;10314678;28;20084;-61
2023/07/13 01:25:37;;;;;;;11.93;10.88;;;;;;;;;;10310727;28;20529;-61
2023/07/13 01:30:36;;;;;;;11.98;10.50;;;;;;;;;;10330528;28;20072;-61
2023/07/13 01:35:34;;;;;;;12.38;10.52;;;;;;;;;;10312822;28;20086;-61
2023/07/13 01:40:33;;;;;;;11.95;10.82;;;;;;;;;;10336226;28;20067;-61
2023/07/13 01:45:33;;;;;;;11.88;10.63;;;;;;;;;;10332896;28;20075;-60
2023/07/13 01:50:33;;;;;;;11.80;9.93;;;;;;;;;;10318392;28;20135;-61
2023/07/13 01:55:32;;;;;;;11.63;10.32;;;;;;;;;;10333404;28;20504;-61
2023/07/13 02:00:34;;;;;;;11.57;10.43;;;;;;;;;;10319714;28;20067;-62
2023/07/13 02:05:34;;;;;;;11.48;10.38;;;;;;;;;;10337175;28;20095;-62
2023/07/13 02:10:32;;;;;;;11.82;10.55;;;;;;;;;;10335967;28;20080;-61
2023/07/13 02:15:30;;;;;;;12.55;10.10;;;;;;;;;;10333675;28;20078;-61
2023/07/13 02:20:30;;;;;;;10.30;9.30;;;;;;;;;;10336167;28;20070;-61
2023/07/13 02:25:28;;;;;;;13.07;10.48;;;;;;;;;;10330766;28;20091;-61
2023/07/13 02:30:29;;;;;;;11.77;10.52;;;;;;;;;;10318296;28;20099;-60
2023/07/13 02:35:30;;;;;;;12.70;11.45;;;;;;;;;;10335788;28;20083;-60
2023/07/13 02:40:29;;;;;;;11.77;10.00;;;;;;;;;;10335881;28;20068;-62
2023/07/13 02:45:27;;;;;;;13.05;11.35;;;;;;;;;;10316512;28;20177;-60
2023/07/13 02:50:25;;;;;;;11.02;9.88;;;;;;;;;;10332239;28;20091;-61
2023/07/13 02:55:25;;;;;;;11.60;10.38;;;;;;;;;;10315917;28;20072;-61
2023/07/13 03:00:23;;;;;;;11.70;10.30;;;;;;;;;;10314848;28;20068;-61
2023/07/13 03:05:22;;;;;;;12.93;10.18;;;;;;;;;;10315615;28;20048;-61
2023/07/13 03:10:20;;;;;;;11.82;9.93;;;;;;;;;;10315529;28;20170;-61
2023/07/13 03:15:22;;;;;;;12.43;9.65;;;;;;;;;;10333501;28;20072;-61
2023/07/13 03:20:22;;;;;;;11.90;10.75;;;;;;;;;;10312362;28;20044;-61
2023/07/13 03:25:21;;;;;;;10.80;9.80;;;;;;;;;;10316693;28;20072;-60
2023/07/13 03:30:21;;;;;;;15.02;10.30;;;;;;;;;;10315603;28;20072;-61
2023/07/13 03:35:21;;;;;;;11.85;10.60;;;;;;;;;;10316023;28;20083;-61
2023/07/13 03:40:19;;;;;;;11.35;9.02;;;;;;;;;;10332872;28;20076;-61
2023/07/13 03:45:18;;;;;;;11.88;10.68;;;;;;;;;;10330697;28;20079;-61
2023/07/13 03:50:18;;;;;;;11.63;10.50;;;;;;;;;;10308197;28;20552;-61
2023/07/13 03:55:17;;;;;;;13.65;9.77;;;;;;;;;;10327736;28;20083;-61
2023/07/13 04:00:16;;;;;;;10.70;9.30;;;;;;;;;;10331359;28;20321;-60
2023/07/13 04:05:15;;;;;;;11.85;10.57;;;;;;;;;;10331960;28;20719;-61
2023/07/13 04:10:18;;;;;;;13.50;11.27;;;;;;;;;;10330255;28;20076;-61
2023/07/13 04:15:16;;;;;;;11.85;10.70;;;;;;;;;;10330751;28;20044;-61
2023/07/13 04:20:14;;;;;;;11.32;10.25;;;;;;;;;;10331344;28;20083;-61
2023/07/13 04:25:12;;;;;;;11.70;10.23;;;;;;;;;;10329008;28;20071;-60
2023/07/13 04:30:12;;;;;;;12.23;10.73;;;;;;;;;;10329293;28;20093;-61
2023/07/13 04:35:11;;;;;;;18.33;10.80;;;;;;;;;;10331826;28;20064;-59
2023/07/13 04:40:11;;;;;;;11.65;10.57;;;;;;;;;;10334752;28;20462;-61
2023/07/13 04:45:10;;;;;;;12.55;9.93;;;;;;;;;;10330318;28;20071;-60
2023/07/13 04:50:11;;;;;;;11.68;10.35;;;;;;;;;;10328227;28;20281;-61
2023/07/13 04:55:09;;;;;;;11.93;10.65;;;;;;;;;;10328883;28;20496;-60
2023/07/13 05:00:08;;;;;;;13.07;11.48;;;;;;;;;;10328808;28;20492;-61
2023/07/13 05:05:07;;;;;;;13.32;11.95;;;;;;;;;;10327245;28;20509;-60
2023/07/13 05:10:08;;;;;;;12.80;9.57;;;;;;;;;;10332151;28;20068;-60
2023/07/13 05:15:07;;;;;;;15.00;11.25;;;;;;;;;;10340328;28;20082;-60
2023/07/13 05:20:05;;;;;;;13.75;12.45;;;;;;;;;;10345642;28;20076;-60
2023/07/13 05:25:05;;;;;;;14.25;12.88;;;;;;;;;;10335240;28;20082;-60
2023/07/13 05:30:06;;;;;;;11.95;9.48;;;;;;;;;;10333722;28;20512;-60
2023/07/13 05:35:04;;;;;;;14.07;11.10;;;;;;;;;;10332555;28;20076;-60
2023/07/13 05:40:02;;;;;;;13.05;10.85;;;;;;;;;;10333685;28;20585;-60
2023/07/13 05:45:01;;;;;;;17.58;15.70;;;;;;;;;;10336378;28;20472;-60
2023/07/13 05:50:00;;;;;;;20.35;18.55;;;;;;;;;;10336543;28;20525;-61
2023/07/13 05:55:03;;;;;;;14.32;11.15;;;;;;;;;;10331205;28;20078;-60
2023/07/13 06:00:01;;;;;;;17.35;12.95;;;;;;;;;;10335289;28;20453;-60
2023/07/13 06:05:10;;;;;;;12.55;10.15;;;;;;;;;;10341567;28;20079;-60
2023/07/13 06:10:09;;;;;;;16.70;12.07;;;;;;;;;;10336468;28;20154;-60
2023/07/13 06:15:08;;;;;;;11.43;10.32;;;;;;;;;;10335423;28;20068;-60
2023/07/13 06:20:07;;;;;;;10.27;7.85;;;;;;;;;;10336631;28;20082;-61
2023/07/13 06:25:07;;;;;;;10.48;9.05;;;;;;;;;;10333909;28;20076;-60
2023/07/13 06:30:06;;;;;;;10.70;9.68;;;;;;;;;;10333393;28;20083;-60
2023/07/13 06:35:05;;;;;;;11.73;8.25;;;;;;;;;;10336035;28;20197;-61
2023/07/13 06:40:04;;;;;;;11.15;8.30;;;;;;;;;;10335644;28;20078;-61
2023/07/13 06:45:04;;;;;;;9.10;8.20;;;;;;;;;;10334785;28;20084;-60
2023/07/13 06:50:02;;;;;;;12.75;9.00;;;;;;;;;;10335399;28;20079;-61
2023/07/13 06:55:00;;;;;;;11.10;9.77;;;;;;;;;;10334833;28;20521;-60
2023/07/13 06:59:58;;;;;;;8.93;7.93;;;;;;;;;;10333727;28;20067;-62
2023/07/13 07:04:58;;;;;;;10.50;8.60;;;;;;;;;;10332729;28;20068;-61
2023/07/13 07:09:56;;;;;;;11.57;8.45;;;;;;;;;;10333975;28;20071;-60
2023/07/13 07:14:54;;;;;;;8.88;7.88;;;;;;;;;;10334301;28;20082;-61
2023/07/13 07:19:53;;;;;;;12.20;9.98;;;;;;;;;;10332781;28;20098;-62
2023/07/13 07:24:53;;;;;;;9.57;8.57;;;;;;;;;;10332154;28;20080;-62
2023/07/13 07:29:51;;;;;;;14.00;9.05;;;;;;;;;;10332454;28;20072;-61
2023/07/13 07:35:01;;;;;;;11.40;8.85;;;;;;;;;;10330671;28;20064;-60
2023/07/13 07:40:02;;;;;;;13.02;9.85;;;;;;;;;;10327448;28;20071;-61
2023/07/13 07:45:04;;;;;;;12.50;8.75;;;;;;;;;;10333246;28;20489;-60
2023/07/13 07:50:03;;;;;;;9.25;8.45;;;;;;;;;;10331870;28;20510;-61
2023/07/13 07:55:03;;;;;;;9.63;7.93;;;;;;;;;;10330570;28;20072;-60
2023/07/13 08:00:04;;;;;;;11.88;7.97;;;;;;;;;;10332016;28;20066;-61
2023/07/13 08:05:11;;;;;;;8.45;7.75;;;;;;;;;;10336126;28;20482;-61
2023/07/13 08:10:13;;;;;;;11.45;8.38;;;;;;;;;;10330134;28;20072;-61
2023/07/13 08:15:12;;;;;;;8.32;7.55;;;;;;;;;;10332250;28;20075;-61
2023/07/13 08:20:11;;;;;;;9.30;7.68;;;;;;;;;;10332205;28;20079;-61
2023/07/13 08:25:09;;;;;;;8.10;7.18;;;;;;;;;;10330164;28;20080;-60
2023/07/13 08:30:09;;;;;;;8.98;7.70;;;;;;;;;;10331171;28;20075;-60
2023/07/13 08:35:08;;;;;;;7.80;7.05;;;;;;;;;;10330620;28;20083;-60
2023/07/13 08:40:07;;;;;;;8.98;6.88;;;;;;;;;;10330410;28;20079;-59
2023/07/13 08:45:13;;;;;;;9.02;6.90;;;;;;;;;;10330757;28;20080;-60
2023/07/13 08:50:13;;;;;;;8.00;7.15;;;;;;;;;;10333816;28;20088;-60
2023/07/13 08:55:14;;;;;;;10.23;7.90;;;;;;;;;;10339914;28;20071;-60
2023/07/13 09:00:15;;;;;;;7.35;6.63;;;;;;;;;;10338339;28;20071;-60
2023/07/13 09:05:16;;;;;;;8.50;6.18;;;;;;;;;;10338432;28;20075;-61
2023/07/13 09:10:16;;;;;;;7.18;6.18;;;;;;;;;;10339214;28;20543;-60
2023/07/13 09:15:26;;;;;;;13.30;6.47;;;;;;;;;;10336062;28;20469;-59
2023/07/13 09:20:27;;;;;;;7.55;6.53;;;;;;;;;;10336636;28;20078;-60
2023/07/13 09:25:30;;;;;;;6.97;6.28;;;;;;;;;;10332110;28;20080;-60
2023/07/13 09:30:36;;;;;;;9.30;5.82;;;;;;;;;;10338255;28;20083;-61
2023/07/13 09:35:35;;;;;;;8.50;5.68;;;;;;;;;;10335806;28;20064;-63
2023/07/13 09:40:40;;;;;;;7.55;5.78;;;;;;;;;;10337497;28;20076;-61
2023/07/13 09:45:40;;;;;;;8.75;5.95;;;;;;;;;;10337581;28;20079;-60
2023/07/13 09:50:38;;;;;;;7.90;5.55;;;;;;;;;;10337363;28;20080;-61
2023/07/13 09:55:38;;;;;;;8.85;6.22;;;;;;;;;;10334321;28;20094;-60
2023/07/13 10:00:36;;;;;;;10.70;5.32;;;;;;;;;;10334738;28;20064;-61
2023/07/13 10:05:43;;;;;;;10.45;6.18;;;;;;;;;;10334972;28;20488;-61
2023/07/13 10:10:41;;;;;;;7.85;5.78;;;;;;;;;;10335370;28;20529;-61
2023/07/13 10:15:39;;;;;;;7.00;6.30;;;;;;;;;;10337421;28;20091;-62
2023/07/13 10:20:41;;;;;;;12.38;5.40;;;;;;;;;;10337729;28;20064;-60
2023/07/13 10:25:44;;;;;;;7.57;5.63;;;;;;;;;;10334687;28;20107;-62
2023/07/13 10:30:44;;;;;;;7.85;5.82;;;;;;;;;;10337915;28;20508;-61
2023/07/13 10:35:44;;;;;;;7.63;5.63;;;;;;;;;;10335288;28;20068;-60
2023/07/13 10:40:46;;;;;;;13.98;6.32;;;;;;;;;;10333725;28;20069;-60
2023/07/13 10:45:45;;;;;;;11.50;6.15;;;;;;;;;;10332148;28;20462;-60
2023/07/13 10:50:45;;;;;;;11.48;6.07;;;;;;;;;;10331855;28;20083;-61
2023/07/13 10:55:57;;;;;;;13.93;6.82;;;;;;;;;;10334100;28;20076;-61
2023/07/13 11:00:58;;;;;;;9.88;5.07;;;;;;;;;;10333046;28;20083;-60
2023/07/13 11:06:08;;;;;;;10.35;5.47;;;;;;;;;;10333398;28;20071;-61
2023/07/13 11:11:22;;;;;;;13.45;6.00;;;;;;;;;;10328601;28;20099;-60
2023/07/13 11:16:37;;;;;;;7.80;5.28;;;;;;;;;;10328661;28;20061;-61
2023/07/13 11:21:35;;;;;;;12.35;5.35;;;;;;;;;;10333536;28;20074;-60
2023/07/13 11:26:40;;;;;;;9.55;5.35;;;;;;;;;;10333457;28;20078;-60
2023/07/13 11:31:43;;;;;;;7.80;5.43;;;;;;;;;;10332612;28;20115;-61
2023/07/13 11:36:44;;;;;;;11.00;5.00;;;;;;;;;;10332599;28;20072;-61
2023/07/13 11:41:44;;;;;;;12.57;5.18;;;;;;;;;;10331371;28;20536;-60
2023/07/13 11:46:48;;;;;;;8.82;6.00;;;;;;;;;;10330909;28;20287;-60
2023/07/13 11:51:53;;;;;;;9.55;5.32;;;;;;;;;;10331523;28;20095;-61
2023/07/13 11:56:52;;;;;;;8.38;5.63;;;;;;;;;;10327478;28;20444;-61
2023/07/13 12:01:53;;;;;;;13.18;5.13;;;;;;;;;;10332147;28;20075;-61
2023/07/13 12:06:58;;;;;;;7.25;4.55;;;;;;;;;;10329646;28;20513;-60
2023/07/13 12:11:57;;;;;;;11.10;5.07;;;;;;;;;;10333300;28;20072;-61
2023/07/13 12:16:57;;;;;;;7.93;4.93;;;;;;;;;;10331016;28;20083;-61
2023/07/13 12:21:57;;;;;;;9.40;5.13;;;;;;;;;;10330726;28;20067;-61
2023/07/13 12:26:56;;;;;;;11.05;5.28;;;;;;;;;;10331484;28;20081;-61
2023/07/13 12:31:55;;;;;;;9.75;5.78;;;;;;;;;;10330174;28;20074;-61
2023/07/13 12:36:56;;;;;;;9.20;4.40;;;;;;;;;;10330963;28;20072;-61
2023/07/13 12:41:54;;;;;;;5.28;4.15;;;;;;;;;;10324963;28;20068;-61
2023/07/13 12:46:54;;;;;;;11.75;4.60;;;;;;;;;;10331360;28;20090;-61
2023/07/13 12:52:00;;;;;;;12.52;4.57;;;;;;;;;;10329561;28;20075;-61
2023/07/13 12:57:02;;;;;;;17.52;5.00;;;;;;;;;;10325509;28;20095;-62
2023/07/13 13:02:02;;;;;;;7.43;4.10;;;;;;;;;;10330511;28;20528;-61
2023/07/13 13:07:04;;;;;;;10.20;4.25;;;;;;;;;;10329408;28;20079;-62
2023/07/13 13:12:02;;;;;;;7.15;4.70;;;;;;;;;;10329780;28;20513;-61
2023/07/13 13:17:00;;;;;;;9.18;4.38;;;;;;;;;;10329298;28;20488;-61
2023/07/13 13:21:59;;;;;;;8.32;4.38;;;;;;;;;;10330880;28;20076;-63
2023/07/13 13:27:00;;;;;;;7.13;4.85;;;;;;;;;;10330466;28;20524;-61
2023/07/13 13:31:59;;;;;;;5.40;4.22;;;;;;;;;;10330827;28;20065;-61
2023/07/13 13:36:57;;;;;;;8.65;4.72;;;;;;;;;;10338117;28;20068;-60
2023/07/13 13:41:59;;;;;;;10.40;4.38;;;;;;;;;;10338819;28;20072;-61
2023/07/13 13:46:57;;;;;;;6.75;3.83;;;;;;;;;;10336665;28;20084;-61
2023/07/13 13:51:56;;;;;;;9.80;4.97;;;;;;;;;;10334983;28;20071;-61
2023/07/13 13:56:55;;;;;;;8.95;4.53;;;;;;;;;;10338618;28;20072;-60
2023/07/13 14:01:55;;;;;;;11.93;5.43;;;;;;;;;;10336739;28;20079;-61
2023/07/13 14:06:53;;;;;;;8.02;4.85;;;;;;;;;;10335186;28;20064;-61
2023/07/13 14:11:52;;;;;;;10.02;5.43;;;;;;;;;;10340986;28;20068;-61
2023/07/13 14:16:53;;;;;;;11.57;4.57;;;;;;;;;;10342326;28;20083;-61
2023/07/13 14:21:53;;;;;;;9.88;4.68;;;;;;;;;;10338678;28;20083;-60
2023/07/13 14:26:52;;;;;;;11.63;4.90;;;;;;;;;;10334973;28;20078;-61
2023/07/13 14:31:51;;;;;;;5.63;4.88;;;;;;;;;;10335075;28;20079;-61
2023/07/13 14:36:50;;;;;;;19.58;4.90;;;;;;;;;;10334620;28;20067;-60
2023/07/13 14:41:52;;;;;;;8.48;5.63;;;;;;;;;;10340502;28;20068;-60
2023/07/13 14:46:51;;;;;;;10.55;5.05;;;;;;;;;;10338845;28;20099;-61
2023/07/13 14:51:50;;;;;;;8.20;4.18;;;;;;;;;;10333421;28;20513;-60
2023/07/13 14:56:48;;;;;;;10.25;4.70;;;;;;;;;;10334408;28;20063;-61
2023/07/13 15:01:49;;;;;;;7.10;4.28;;;;;;;;;;10333920;28;20493;-60
2023/07/13 15:06:54;;;;;;;13.45;4.80;;;;;;;;;;10334302;28;20076;-60
2023/07/13 15:11:53;;;;;;;8.32;4.95;;;;;;;;;;10333420;28;20080;-61
2023/07/13 15:16:54;;;;;;;10.52;4.70;;;;;;;;;;10340558;28;20098;-61
2023/07/13 15:21:55;;;;;;;15.50;5.93;;;;;;;;;;10343424;28;20068;-61
2023/07/13 15:26:54;;;;;;;9.77;4.35;;;;;;;;;;10346134;28;20071;-61
2023/07/13 15:31:54;;;;;;;8.20;4.72;;;;;;;;;;10337826;28;20076;-61
2023/07/13 15:36:52;;;;;;;8.38;5.28;;;;;;;;;;10331696;28;20072;-61
2023/07/13 15:41:50;;;;;;;13.18;5.53;;;;;;;;;;10342358;28;20074;-61
2023/07/13 15:46:48;;;;;;;7.65;4.40;;;;;;;;;;10342268;28;20086;-61
2023/07/13 15:51:48;;;;;;;8.68;3.90;;;;;;;;;;10336816;28;20067;-61
2023/07/13 15:56:50;;;;;;;11.95;4.50;;;;;;;;;;10334242;28;20086;-61
2023/07/13 16:01:49;;;;;;;16.70;5.97;;;;;;;;;;10333593;28;20076;-61
2023/07/13 16:06:50;;;;;;;14.02;4.38;;;;;;;;;;10332818;28;20818;-61
2023/07/13 16:11:49;;;;;;;18.77;8.60;;;;;;;;;;10332905;28;20075;-61
2023/07/13 16:16:48;;;;;;;9.18;4.60;;;;;;;;;;10336035;28;20060;-60
2023/07/13 16:21:48;;;;;;;15.70;4.80;;;;;;;;;;10340922;28;20497;-61
2023/07/13 16:26:48;;;;;;;9.65;6.35;;;;;;;;;;10332837;28;20060;-61
2023/07/13 16:31:59;;;;;;;15.90;7.63;;;;;;;;;;10324963;28;20080;-61
2023/07/13 16:36:57;;;;;;;9.98;4.82;;;;;;;;;;10336441;28;20087;-61
2023/07/13 16:41:58;;;;;;;9.60;4.55;;;;;;;;;;10333129;28;20072;-61
2023/07/13 16:47:00;;;;;;;13.90;6.32;;;;;;;;;;10332579;28;20075;-60
2023/07/13 16:52:01;;;;;;;17.25;5.70;;;;;;;;;;10339995;28;20075;-61
2023/07/13 16:57:03;;;;;;;14.38;4.88;;;;;;;;;;10331519;28;20087;-61
2023/07/13 17:02:03;;;;;;;10.70;5.65;;;;;;;;;;10331717;28;20076;-61
2023/07/13 17:07:02;;;;;;;10.52;5.18;;;;;;;;;;10338193;28;20072;-60
2023/07/13 17:12:01;;;;;;;11.80;5.10;;;;;;;;;;10342429;28;20587;-62
2023/07/13 17:17:00;;;;;;;16.95;5.97;;;;;;;;;;10342450;28;20082;-61
2023/07/13 17:22:05;;;;;;;11.00;5.00;;;;;;;;;;10341934;28;20071;-60
2023/07/13 17:27:06;;;;;;;10.68;5.30;;;;;;;;;;10342917;28;20071;-60
2023/07/13 17:32:05;;;;;;;10.02;5.30;;;;;;;;;;10344455;28;20519;-61
2023/07/13 17:37:04;;;;;;;12.30;5.03;;;;;;;;;;10334211;28;20094;-61
2023/07/13 17:42:03;;;;;;;9.98;5.60;;;;;;;;;;10336202;28;20075;-61
2023/07/13 17:47:05;;;;;;;10.20;5.40;;;;;;;;;;10339416;28;20080;-61
2023/07/13 17:52:05;;;;;;;14.27;4.80;;;;;;;;;;10341705;28;20060;-60
2023/07/13 17:57:04;;;;;;;10.13;4.75;;;;;;;;;;10343081;28;20082;-60
2023/07/13 18:02:02;;;;;;;13.52;5.30;;;;;;;;;;10332652;28;20527;-60
2023/07/13 18:07:08;;;;;;;13.02;7.07;;;;;;;;;;10340558;28;20086;-61
2023/07/13 18:12:09;;;;;;;11.57;5.55;;;;;;;;;;10333630;28;20084;-59
2023/07/13 18:17:12;;;;;;;16.38;5.03;;;;;;;;;;10336734;28;20080;-60
2023/07/13 18:22:13;;;;;;;9.57;5.15;;;;;;;;;;10343255;28;20603;-60
2023/07/13 18:27:11;;;;;;;9.85;5.38;;;;;;;;;;10338844;28;20075;-60
2023/07/13 18:32:12;;;;;;;12.45;5.70;;;;;;;;;;10336416;28;20064;-60
2023/07/13 18:37:16;;;;;;;29.50;7.30;;;;;;;;;;10335199;28;20126;-60
2023/07/13 18:42:15;;;;;;;14.25;5.97;;;;;;;;;;10340511;28;20075;-60
2023/07/13 18:47:15;;;;;;;14.85;5.60;;;;;;;;;;10339781;28;20204;-59
2023/07/13 18:52:18;;;;;;;22.70;7.20;;;;;;;;;;10337268;28;20082;-60
2023/07/13 18:57:18;;;;;;;16.33;6.43;;;;;;;;;;10337926;28;20068;-60
2023/07/13 19:02:18;;;;;;;15.43;5.75;;;;;;;;;;10336397;28;20514;-57
2023/07/13 19:07:18;;;;;;;8.05;5.15;;;;;;;;;;10345426;28;20067;-58
2023/07/13 19:12:18;;;;;;;12.90;4.95;;;;;;;;;;10340209;28;20070;-58
2023/07/13 19:17:16;;;;;;;14.30;5.95;;;;;;;;;;10336227;28;20506;-58
2023/07/13 19:22:15;;;;;;;10.35;4.72;;;;;;;;;;10336316;28;20166;-58
2023/07/13 19:27:15;;;;;;;12.80;5.20;;;;;;;;;;10339332;28;20059;-58
2023/07/13 19:32:16;;;;;;;11.90;5.70;;;;;;;;;;10339586;28;20126;-59
2023/07/13 19:37:18;;;;;;;9.23;5.18;;;;;;;;;;10336940;28;20071;-59
2023/07/13 19:42:20;;;;;;;9.35;4.75;;;;;;;;;;10337186;28;20068;-58
2023/07/13 19:47:19;;;;;;;13.50;6.97;;;;;;;;;;10338195;28;20504;-59
2023/07/13 19:52:18;;;;;;;13.75;7.55;;;;;;;;;;10338200;28;20513;-59
2023/07/13 19:57:17;;;;;;;12.02;6.53;;;;;;;;;;10332648;28;20076;-59
2023/07/13 20:02:17;;;;;;;9.23;5.57;;;;;;;;;;10326979;28;20487;-59
2023/07/13 20:07:17;;;;;;;12.15;5.10;;;;;;;;;;10333750;28;20059;-59
2023/07/13 20:12:17;;;;;;;10.68;5.28;;;;;;;;;;10341300;28;20064;-59
2023/07/13 20:17:31;;;;;;;11.48;5.22;;;;;;;;;;10332345;28;20387;-59
2023/07/13 20:22:30;;;;;;;12.98;5.57;;;;;;;;;;10328664;28;20513;-59
2023/07/13 20:27:28;;;;;;;7.90;5.47;;;;;;;;;;10324254;28;20072;-59
2023/07/13 20:32:27;;;;;;;14.63;5.97;;;;;;;;;;10330624;28;20075;-58
2023/07/13 20:37:32;;;;;;;11.75;5.80;;;;;;;;;;10330579;28;20064;-59
2023/07/13 20:42:31;;;;;;;13.32;4.68;;;;;;;;;;10327408;28;20076;-59
2023/07/13 20:47:29;;;;;;;8.68;5.28;;;;;;;;;;10331148;28;20457;-59
2023/07/13 20:52:27;;;;;;;7.57;5.35;;;;;;;;;;10328379;28;20078;-59
2023/07/13 20:57:27;;;;;;;12.93;5.10;;;;;;;;;;10329757;28;20075;-59
2023/07/13 21:02:28;;;;;;;9.82;4.60;;;;;;;;;;10329788;28;20123;-59
2023/07/13 21:07:27;;;;;;;13.27;5.28;;;;;;;;;;10326275;28;20071;-59
2023/07/13 21:12:27;;;;;;;11.32;5.93;;;;;;;;;;10331874;28;20087;-59
2023/07/13 21:17:25;;;;;;;15.60;5.25;;;;;;;;;;10330009;28;20084;-58
2023/07/13 21:22:23;;;;;;;11.90;5.22;;;;;;;;;;10329839;28;20074;-59
2023/07/13 21:27:21;;;;;;;9.93;4.88;;;;;;;;;;10330041;28;20076;-59
2023/07/13 21:32:24;;;;;;;9.75;4.65;;;;;;;;;;10331262;28;20079;-60
2023/07/13 21:37:22;;;;;;;10.40;4.60;;;;;;;;;;10328470;28;20079;-59
2023/07/13 21:42:20;;;;;;;8.23;5.10;;;;;;;;;;10333109;28;20083;-58
2023/07/13 21:47:19;;;;;;;7.82;4.75;;;;;;;;;;10329357;28;20087;-59
2023/07/13 21:52:18;;;;;;;8.13;4.45;;;;;;;;;;10328903;28;20095;-58
2023/07/13 21:57:17;;;;;;;5.55;4.03;;;;;;;;;;10337262;28;20076;-58
2023/07/13 22:02:15;;;;;;;7.45;5.00;;;;;;;;;;10337776;28;20493;-58
2023/07/13 22:07:14;;;;;;;9.95;4.88;;;;;;;;;;10337472;28;20076;-59
2023/07/13 22:12:14;;;;;;;12.20;4.00;;;;;;;;;;10335409;28;20072;-58
2023/07/13 22:17:13;;;;;;;9.35;5.20;;;;;;;;;;10336381;28;20461;-59
2023/07/13 22:22:13;;;;;;;8.45;4.50;;;;;;;;;;10332372;28;20064;-58
2023/07/13 22:27:12;;;;;;;9.43;4.78;;;;;;;;;;10333985;28;20064;-59
2023/07/13 22:32:11;;;;;;;10.73;5.13;;;;;;;;;;10335174;28;20033;-58
2023/07/13 22:37:10;;;;;;;10.73;5.22;;;;;;;;;;10337013;28;20072;-58
2023/07/13 22:42:09;;;;;;;8.85;5.38;;;;;;;;;;10335956;28;20090;-60
2023/07/13 22:47:12;;;;;;;12.80;4.82;;;;;;;;;;10333092;28;20084;-60
2023/07/13 22:52:12;;;;;;;7.22;4.85;;;;;;;;;;10334060;28;20441;-58
2023/07/13 22:57:11;;;;;;;6.20;4.47;;;;;;;;;;10335164;28;20087;-58
2023/07/13 23:02:16;;;;;;;8.25;4.45;;;;;;;;;;10334962;28;20072;-58
2023/07/13 23:07:15;;;;;;;12.90;5.30;;;;;;;;;;10332720;28;20078;-58
2023/07/13 23:12:14;;;;;;;9.13;6.22;;;;;;;;;;10333902;28;20064;-58
2023/07/13 23:17:12;;;;;;;9.85;4.82;;;;;;;;;;10329027;28;20084;-59
2023/07/13 23:22:20;;;;;;;5.78;4.97;;;;;;;;;;10332048;28;20071;-59
2023/07/13 23:27:20;;;;;;;9.02;4.88;;;;;;;;;;10332898;28;20110;-59
2023/07/13 23:32:18;;;;;;;10.60;4.80;;;;;;;;;;10329378;28;20482;-59
2023/07/13 23:37:17;;;;;;;10.18;5.60;;;;;;;;;;10329791;28;20068;-59
2023/07/13 23:42:15;;;;;;;9.98;5.18;;;;;;;;;;10332759;28;20068;-59
2023/07/13 23:47:15;;;;;;;10.65;5.45;;;;;;;;;;10331706;28;20488;-59
2023/07/13 23:52:14;;;;;;;9.00;5.47;;;;;;;;;;10333024;28;20083;-59
2023/07/13 23:57:12;;;;;;;11.90;5.28;;;;;;;;;;10331449;28;20071;-58
